sensor_id;sensor_type;location;lat;lon;timestamp;pressure;altitude;pressure_sealevel;temperature;humidity
17764;BME280;22245;52.832;13.816;2023-05-10T00:00:26;101214.50;;;13.56;47.26
17764;BME280;22245;52.832;13.816;2023-05-10T00:03:49;101212.50;;;13.49;47.45
17764;BME280;22245;52.832;13.816;2023-05-10T00:07:11;101206.84;;;13.42;47.45
17764;BME280;22245;52.832;13.816;2023-05-10T00:10:33;101215.28;;;13.37;48.12
17764;BME280;22245;52.832;13.816;2023-05-10T00:13:54;101211.19;;;13.33;47.87
17764;BME280;22245;52.832;13.816;2023-05-10T00:17:16;101203.72;;;13.27;48.37
17764;BME280;22245;52.832;13.816;2023-05-10T00:20:39;101208.63;;;13.22;48.74
17764;BME280;22245;52.832;13.816;2023-05-10T00:24:01;101208.34;;;13.15;49.62
17764;BME280;22245;52.832;13.816;2023-05-10T00:27:22;101201.69;;;13.09;48.77
17764;BME280;22245;52.832;13.816;2023-05-10T00:30:43;101201.97;;;13.06;49.73
17764;BME280;22245;52.832;13.816;2023-05-10T00:34:05;101192.66;;;13.00;49.02
17764;BME280;22245;52.832;13.816;2023-05-10T00:37:28;101197.56;;;12.95;49.38
17764;BME280;22245;52.832;13.816;2023-05-10T00:40:50;101193.47;;;12.91;49.99
17764;BME280;22245;52.832;13.816;2023-05-10T00:44:18;101189.66;;;12.84;49.92
17764;BME280;22245;52.832;13.816;2023-05-10T00:47:40;101187.38;;;12.79;49.79
17764;BME280;22245;52.832;13.816;2023-05-10T00:51:02;101185.25;;;12.73;49.83
17764;BME280;22245;52.832;13.816;2023-05-10T00:54:25;101183.94;;;12.67;50.60
17764;BME280;22245;52.832;13.816;2023-05-10T00:57:47;101177.06;;;12.65;50.49
17764;BME280;22245;52.832;13.816;2023-05-10T01:01:09;101167.63;;;12.61;50.57
17764;BME280;22245;52.832;13.816;2023-05-10T01:04:31;101173.09;;;12.59;50.02
17764;BME280;22245;52.832;13.816;2023-05-10T01:07:53;101168.72;;;12.58;51.10
17764;BME280;22245;52.832;13.816;2023-05-10T01:11:15;101153.81;;;12.55;50.58
17764;BME280;22245;52.832;13.816;2023-05-10T01:14:37;101159.69;;;12.49;51.63
17764;BME280;22245;52.832;13.816;2023-05-10T01:18:00;101165.44;;;12.44;51.47
17764;BME280;22245;52.832;13.816;2023-05-10T01:21:29;101167.78;;;12.38;51.74
17764;BME280;22245;52.832;13.816;2023-05-10T01:25:25;101168.31;;;12.32;52.02
17764;BME280;22245;52.832;13.816;2023-05-10T01:29:13;101154.06;;;12.21;52.35
17764;BME280;22245;52.832;13.816;2023-05-10T01:32:42;101155.59;;;12.14;52.05
17764;BME280;22245;52.832;13.816;2023-05-10T01:36:07;101153.41;;;12.08;52.83
17764;BME280;22245;52.832;13.816;2023-05-10T01:39:37;101148.72;;;12.00;53.48
17764;BME280;22245;52.832;13.816;2023-05-10T01:43:04;101137.44;;;11.96;52.89
17764;BME280;22245;52.832;13.816;2023-05-10T01:46:34;101139.66;;;11.91;53.19
17764;BME280;22245;52.832;13.816;2023-05-10T01:50:01;101132.91;;;11.87;53.12
17764;BME280;22245;52.832;13.816;2023-05-10T01:53:24;101134.25;;;11.81;53.11
17764;BME280;22245;52.832;13.816;2023-05-10T01:56:49;101139.28;;;11.75;53.27
17764;BME280;22245;52.832;13.816;2023-05-10T02:00:14;101133.72;;;11.66;53.33
17764;BME280;22245;52.832;13.816;2023-05-10T02:03:37;101136.53;;;11.65;52.94
17764;BME280;22245;52.832;13.816;2023-05-10T02:07:01;101141.97;;;11.63;53.21
17764;BME280;22245;52.832;13.816;2023-05-10T02:10:23;101138.72;;;11.60;53.62
17764;BME280;22245;52.832;13.816;2023-05-10T02:13:46;101137.41;;;11.54;53.17
17764;BME280;22245;52.832;13.816;2023-05-10T02:17:09;101127.25;;;11.48;53.73
17764;BME280;22245;52.832;13.816;2023-05-10T02:20:33;101129.47;;;11.42;54.07
17764;BME280;22245;52.832;13.816;2023-05-10T02:23:57;101115.91;;;11.34;53.68
17764;BME280;22245;52.832;13.816;2023-05-10T02:27:23;101118.00;;;11.31;53.78
17764;BME280;22245;52.832;13.816;2023-05-10T02:30:47;101118.09;;;11.29;54.26
17764;BME280;22245;52.832;13.816;2023-05-10T02:34:10;101112.19;;;11.25;54.12
17764;BME280;22245;52.832;13.816;2023-05-10T02:37:33;101112.31;;;11.24;54.55
17764;BME280;22245;52.832;13.816;2023-05-10T02:40:59;101116.91;;;11.22;54.22
17764;BME280;22245;52.832;13.816;2023-05-10T02:44:22;101119.84;;;11.19;54.72
17764;BME280;22245;52.832;13.816;2023-05-10T02:47:44;101119.38;;;11.13;55.13
17764;BME280;22245;52.832;13.816;2023-05-10T02:51:07;101112.72;;;11.08;55.05
17764;BME280;22245;52.832;13.816;2023-05-10T02:54:32;101113.09;;;11.03;55.31
17764;BME280;22245;52.832;13.816;2023-05-10T02:57:58;101105.38;;;11.00;54.56
17764;BME280;22245;52.832;13.816;2023-05-10T03:01:21;101110.91;;;10.97;54.97
17764;BME280;22245;52.832;13.816;2023-05-10T03:04:43;101105.13;;;10.92;55.41
17764;BME280;22245;52.832;13.816;2023-05-10T03:08:04;101106.09;;;10.91;55.68
17764;BME280;22245;52.832;13.816;2023-05-10T03:11:36;101105.16;;;10.80;55.92
17764;BME280;22245;52.832;13.816;2023-05-10T03:15:11;101108.31;;;10.74;56.19
17764;BME280;22245;52.832;13.816;2023-05-10T03:18:42;101107.59;;;10.72;55.94
17764;BME280;22245;52.832;13.816;2023-05-10T03:22:09;101102.38;;;10.70;55.72
17764;BME280;22245;52.832;13.816;2023-05-10T03:25:32;101103.47;;;10.68;55.97
17764;BME280;22245;52.832;13.816;2023-05-10T03:28:57;101098.50;;;10.63;56.13
17764;BME280;22245;52.832;13.816;2023-05-10T03:32:21;101103.84;;;10.63;55.82
17764;BME280;22245;52.832;13.816;2023-05-10T03:35:44;101107.47;;;10.62;55.54
17764;BME280;22245;52.832;13.816;2023-05-10T03:39:06;101094.16;;;10.62;55.98
17764;BME280;22245;52.832;13.816;2023-05-10T03:42:29;101107.72;;;10.59;56.57
17764;BME280;22245;52.832;13.816;2023-05-10T03:45:51;101096.34;;;10.57;56.29
17764;BME280;22245;52.832;13.816;2023-05-10T03:49:14;101094.66;;;10.56;55.87
17764;BME280;22245;52.832;13.816;2023-05-10T03:52:36;101101.66;;;10.57;56.20
17764;BME280;22245;52.832;13.816;2023-05-10T03:55:58;101100.81;;;10.56;56.11
17764;BME280;22245;52.832;13.816;2023-05-10T03:59:20;101100.94;;;10.55;56.54
17764;BME280;22245;52.832;13.816;2023-05-10T04:02:43;101092.81;;;10.56;56.15
17764;BME280;22245;52.832;13.816;2023-05-10T04:06:12;101098.88;;;10.59;56.08
17764;BME280;22245;52.832;13.816;2023-05-10T04:09:33;101099.72;;;10.59;56.27
17764;BME280;22245;52.832;13.816;2023-05-10T04:12:55;101097.69;;;10.63;56.13
17764;BME280;22245;52.832;13.816;2023-05-10T04:16:16;101092.34;;;10.63;56.33
17764;BME280;22245;52.832;13.816;2023-05-10T04:19:38;101092.81;;;10.68;56.39
17764;BME280;22245;52.832;13.816;2023-05-10T04:23:01;101097.91;;;10.71;55.73
17764;BME280;22245;52.832;13.816;2023-05-10T04:26:23;101088.94;;;10.72;55.63
17764;BME280;22245;52.832;13.816;2023-05-10T04:29:45;101086.28;;;10.72;56.16
17764;BME280;22245;52.832;13.816;2023-05-10T04:33:07;101083.38;;;10.75;55.88
17764;BME280;22245;52.832;13.816;2023-05-10T04:36:28;101086.75;;;10.77;56.20
17764;BME280;22245;52.832;13.816;2023-05-10T04:39:52;101094.38;;;10.82;56.30
17764;BME280;22245;52.832;13.816;2023-05-10T04:43:13;101085.41;;;10.83;55.79
17764;BME280;22245;52.832;13.816;2023-05-10T04:46:35;101088.91;;;10.83;56.05
17764;BME280;22245;52.832;13.816;2023-05-10T04:49:57;101088.56;;;10.88;56.31
17764;BME280;22245;52.832;13.816;2023-05-10T04:53:19;101085.88;;;10.88;55.98
17764;BME280;22245;52.832;13.816;2023-05-10T04:56:42;101094.47;;;10.92;56.35
17764;BME280;22245;52.832;13.816;2023-05-10T05:00:05;101081.03;;;10.93;56.10
17764;BME280;22245;52.832;13.816;2023-05-10T05:03:26;101079.19;;;10.94;56.37
17764;BME280;22245;52.832;13.816;2023-05-10T05:06:48;101089.22;;;11.02;56.75
17764;BME280;22245;52.832;13.816;2023-05-10T05:10:13;101080.72;;;11.08;56.20
17764;BME280;22245;52.832;13.816;2023-05-10T05:13:36;101075.59;;;11.16;56.68
17764;BME280;22245;52.832;13.816;2023-05-10T05:16:58;101088.81;;;11.18;56.37
17764;BME280;22245;52.832;13.816;2023-05-10T05:20:20;101089.16;;;11.24;56.51
17764;BME280;22245;52.832;13.816;2023-05-10T05:23:41;101074.88;;;11.25;55.97
17764;BME280;22245;52.832;13.816;2023-05-10T05:27:02;101070.72;;;11.33;55.99
17764;BME280;22245;52.832;13.816;2023-05-10T05:30:25;101077.22;;;11.40;55.71
17764;BME280;22245;52.832;13.816;2023-05-10T05:33:47;101078.28;;;11.49;55.61
17764;BME280;22245;52.832;13.816;2023-05-10T05:37:12;101074.09;;;11.56;55.21
17764;BME280;22245;52.832;13.816;2023-05-10T05:40:34;101084.41;;;11.61;55.40
17764;BME280;22245;52.832;13.816;2023-05-10T05:43:55;101081.06;;;11.68;55.39
17764;BME280;22245;52.832;13.816;2023-05-10T05:47:18;101075.09;;;11.76;54.92
17764;BME280;22245;52.832;13.816;2023-05-10T05:50:40;101072.50;;;11.86;54.38
17764;BME280;22245;52.832;13.816;2023-05-10T05:54:02;101080.78;;;11.93;53.41
17764;BME280;22245;52.832;13.816;2023-05-10T05:57:24;101071.19;;;12.01;53.47
17764;BME280;22245;52.832;13.816;2023-05-10T06:00:47;101076.59;;;12.11;52.91
17764;BME280;22245;52.832;13.816;2023-05-10T06:04:10;101074.94;;;12.20;52.85
17764;BME280;22245;52.832;13.816;2023-05-10T06:07:33;101077.41;;;12.33;52.71
17764;BME280;22245;52.832;13.816;2023-05-10T06:10:54;101082.75;;;12.43;52.90
17764;BME280;22245;52.832;13.816;2023-05-10T06:14:15;101066.06;;;12.51;52.75
17764;BME280;22245;52.832;13.816;2023-05-10T06:17:37;101064.97;;;12.63;51.60
17764;BME280;22245;52.832;13.816;2023-05-10T06:21:00;101072.19;;;12.72;51.74
17764;BME280;22245;52.832;13.816;2023-05-10T06:24:21;101069.50;;;12.82;51.64
17764;BME280;22245;52.832;13.816;2023-05-10T06:27:43;101075.72;;;12.93;51.55
17764;BME280;22245;52.832;13.816;2023-05-10T06:31:11;101074.91;;;13.02;51.58
17764;BME280;22245;52.832;13.816;2023-05-10T06:34:33;101069.41;;;13.13;51.60
17764;BME280;22245;52.832;13.816;2023-05-10T06:37:55;101066.75;;;13.23;51.53
17764;BME280;22245;52.832;13.816;2023-05-10T06:41:17;101062.22;;;13.34;52.69
17764;BME280;22245;52.832;13.816;2023-05-10T06:44:38;101055.91;;;13.44;52.52
17764;BME280;22245;52.832;13.816;2023-05-10T06:48:00;101049.41;;;13.57;51.24
17764;BME280;22245;52.832;13.816;2023-05-10T06:51:22;101054.94;;;13.65;50.58
17764;BME280;22245;52.832;13.816;2023-05-10T06:54:45;101059.69;;;13.71;50.92
17764;BME280;22245;52.832;13.816;2023-05-10T06:58:06;101047.81;;;13.84;50.72
17764;BME280;22245;52.832;13.816;2023-05-10T07:01:27;101050.47;;;13.94;49.85
17764;BME280;22245;52.832;13.816;2023-05-10T07:04:49;101047.78;;;14.03;49.74
17764;BME280;22245;52.832;13.816;2023-05-10T07:08:12;101037.00;;;14.13;49.92
17764;BME280;22245;52.832;13.816;2023-05-10T07:11:36;101036.97;;;14.23;49.42
17764;BME280;22245;52.832;13.816;2023-05-10T07:14:57;101030.72;;;14.32;49.31
17764;BME280;22245;52.832;13.816;2023-05-10T07:18:19;101035.91;;;14.44;49.71
17764;BME280;22245;52.832;13.816;2023-05-10T07:21:41;101036.00;;;14.52;49.59
17764;BME280;22245;52.832;13.816;2023-05-10T07:25:03;101024.06;;;14.65;48.46
17764;BME280;22245;52.832;13.816;2023-05-10T07:28:27;101035.88;;;14.72;49.00
17764;BME280;22245;52.832;13.816;2023-05-10T07:31:48;101040.50;;;14.80;48.99
17764;BME280;22245;52.832;13.816;2023-05-10T07:35:10;101028.41;;;14.94;48.67
17764;BME280;22245;52.832;13.816;2023-05-10T07:38:31;101037.06;;;15.05;48.49
17764;BME280;22245;52.832;13.816;2023-05-10T07:41:53;101027.97;;;15.16;47.93
17764;BME280;22245;52.832;13.816;2023-05-10T07:45:17;101023.34;;;15.27;48.24
17764;BME280;22245;52.832;13.816;2023-05-10T07:48:38;101019.41;;;15.39;48.28
17764;BME280;22245;52.832;13.816;2023-05-10T07:52:00;101024.38;;;15.52;47.32
17764;BME280;22245;52.832;13.816;2023-05-10T07:55:21;101022.41;;;15.62;47.81
17764;BME280;22245;52.832;13.816;2023-05-10T07:58:43;101026.53;;;15.75;48.08
17764;BME280;22245;52.832;13.816;2023-05-10T08:02:06;101024.41;;;15.87;47.35
17764;BME280;22245;52.832;13.816;2023-05-10T08:05:28;101009.41;;;15.94;46.73
17764;BME280;22245;52.832;13.816;2023-05-10T08:08:49;101019.84;;;16.05;47.21
17764;BME280;22245;52.832;13.816;2023-05-10T08:12:11;101021.25;;;16.18;46.70
17764;BME280;22245;52.832;13.816;2023-05-10T08:15:33;100997.75;;;16.28;45.58
17764;BME280;22245;52.832;13.816;2023-05-10T08:18:56;101001.50;;;16.35;44.70
17764;BME280;22245;52.832;13.816;2023-05-10T08:22:18;101001.53;;;16.44;45.52
17764;BME280;22245;52.832;13.816;2023-05-10T08:25:39;101008.28;;;16.56;44.95
17764;BME280;22245;52.832;13.816;2023-05-10T08:29:01;101001.06;;;16.65;44.53
17764;BME280;22245;52.832;13.816;2023-05-10T08:32:22;101023.59;;;16.72;43.91
17764;BME280;22245;52.832;13.816;2023-05-10T08:35:45;101009.34;;;16.80;43.93
17764;BME280;22245;52.832;13.816;2023-05-10T08:39:07;101023.66;;;16.89;43.60
17764;BME280;22245;52.832;13.816;2023-05-10T08:42:51;101013.75;;;16.98;43.72
17764;BME280;22245;52.832;13.816;2023-05-10T08:46:16;101007.22;;;17.09;43.97
17764;BME280;22245;52.832;13.816;2023-05-10T08:49:38;101005.38;;;17.17;44.04
17764;BME280;22245;52.832;13.816;2023-05-10T08:53:04;101010.41;;;17.29;43.63
17764;BME280;22245;52.832;13.816;2023-05-10T08:56:26;101011.25;;;17.38;43.60
17764;BME280;22245;52.832;13.816;2023-05-10T08:59:47;101007.53;;;17.47;42.94
17764;BME280;22245;52.832;13.816;2023-05-10T09:03:10;101011.06;;;17.56;42.56
17764;BME280;22245;52.832;13.816;2023-05-10T09:06:31;101010.03;;;17.65;42.69
17764;BME280;22245;52.832;13.816;2023-05-10T09:09:55;101007.16;;;17.75;42.30
17764;BME280;22245;52.832;13.816;2023-05-10T09:13:19;101008.81;;;17.84;43.15
17764;BME280;22245;52.832;13.816;2023-05-10T09:16:42;100999.19;;;17.90;42.08
17764;BME280;22245;52.832;13.816;2023-05-10T09:20:05;100990.22;;;17.98;41.91
17764;BME280;22245;52.832;13.816;2023-05-10T09:23:27;100988.22;;;18.08;41.94
17764;BME280;22245;52.832;13.816;2023-05-10T09:26:53;100994.38;;;18.17;41.71
17764;BME280;22245;52.832;13.816;2023-05-10T09:30:24;101003.66;;;18.22;40.83
17764;BME280;22245;52.832;13.816;2023-05-10T09:33:48;101003.94;;;18.28;41.31
17764;BME280;22245;52.832;13.816;2023-05-10T09:37:09;100991.44;;;18.35;41.22
17764;BME280;22245;52.832;13.816;2023-05-10T09:40:31;100989.41;;;18.37;39.82
17764;BME280;22245;52.832;13.816;2023-05-10T09:43:56;100999.50;;;18.43;41.55
17764;BME280;22245;52.832;13.816;2023-05-10T09:47:18;100995.91;;;18.51;40.89
17764;BME280;22245;52.832;13.816;2023-05-10T09:50:39;100998.22;;;18.62;41.95
17764;BME280;22245;52.832;13.816;2023-05-10T09:54:12;101005.41;;;18.70;41.55
17764;BME280;22245;52.832;13.816;2023-05-10T09:57:34;100996.41;;;18.78;40.00
17764;BME280;22245;52.832;13.816;2023-05-10T10:00:57;100997.22;;;18.87;41.25
17764;BME280;22245;52.832;13.816;2023-05-10T10:04:20;101009.63;;;18.96;40.46
17764;BME280;22245;52.832;13.816;2023-05-10T10:07:41;100997.09;;;19.03;40.12
17764;BME280;22245;52.832;13.816;2023-05-10T10:11:03;100997.22;;;19.10;40.61
17764;BME280;22245;52.832;13.816;2023-05-10T10:14:26;100995.47;;;19.17;39.47
17764;BME280;22245;52.832;13.816;2023-05-10T10:17:50;100981.25;;;19.23;38.80
17764;BME280;22245;52.832;13.816;2023-05-10T10:21:13;100989.47;;;19.30;38.62
17764;BME280;22245;52.832;13.816;2023-05-10T10:24:35;100990.59;;;19.36;37.97
17764;BME280;22245;52.832;13.816;2023-05-10T10:28:08;100981.75;;;19.42;39.29
17764;BME280;22245;52.832;13.816;2023-05-10T10:31:36;100981.03;;;19.48;37.76
17764;BME280;22245;52.832;13.816;2023-05-10T10:35:00;100978.59;;;19.53;37.78
17764;BME280;22245;52.832;13.816;2023-05-10T10:38:23;100987.63;;;19.61;38.91
17764;BME280;22245;52.832;13.816;2023-05-10T10:41:49;100982.34;;;19.67;37.07
17764;BME280;22245;52.832;13.816;2023-05-10T10:45:12;100979.75;;;19.74;37.63
17764;BME280;22245;52.832;13.816;2023-05-10T10:48:35;100980.66;;;19.81;37.52
17764;BME280;22245;52.832;13.816;2023-05-10T10:52:21;100984.31;;;19.89;37.99
17764;BME280;22245;52.832;13.816;2023-05-10T10:55:47;100973.41;;;19.97;37.51
17764;BME280;22245;52.832;13.816;2023-05-10T10:59:08;100991.41;;;20.05;35.85
17764;BME280;22245;52.832;13.816;2023-05-10T11:02:34;100979.34;;;20.07;36.05
17764;BME280;22245;52.832;13.816;2023-05-10T11:06:04;100978.38;;;20.08;36.65
17764;BME280;22245;52.832;13.816;2023-05-10T11:09:27;100989.81;;;20.10;35.76
17764;BME280;22245;52.832;13.816;2023-05-10T11:12:52;100991.13;;;20.15;37.66
17764;BME280;22245;52.832;13.816;2023-05-10T11:16:17;100969.56;;;20.21;36.87
17764;BME280;22245;52.832;13.816;2023-05-10T11:20:03;100972.59;;;20.33;36.43
17764;BME280;22245;52.832;13.816;2023-05-10T11:23:31;100971.56;;;20.34;36.15
17764;BME280;22245;52.832;13.816;2023-05-10T11:26:54;100965.63;;;20.39;35.35
17764;BME280;22245;52.832;13.816;2023-05-10T11:30:16;100971.66;;;20.41;35.87
17764;BME280;22245;52.832;13.816;2023-05-10T11:33:42;100972.31;;;20.43;36.48
17764;BME280;22245;52.832;13.816;2023-05-10T11:37:04;100976.78;;;20.51;35.26
17764;BME280;22245;52.832;13.816;2023-05-10T11:40:26;100968.91;;;20.56;35.99
17764;BME280;22245;52.832;13.816;2023-05-10T11:43:51;100984.94;;;20.58;35.27
17764;BME280;22245;52.832;13.816;2023-05-10T11:47:14;100979.78;;;20.63;35.50
17764;BME280;22245;52.832;13.816;2023-05-10T11:50:36;100970.00;;;20.62;35.69
17764;BME280;22245;52.832;13.816;2023-05-10T11:53:58;100969.44;;;20.66;35.65
17764;BME280;22245;52.832;13.816;2023-05-10T11:57:21;100979.03;;;20.69;35.90
17764;BME280;22245;52.832;13.816;2023-05-10T12:00:48;100974.19;;;20.79;35.64
17764;BME280;22245;52.832;13.816;2023-05-10T12:04:09;100977.59;;;20.88;36.37
17764;BME280;22245;52.832;13.816;2023-05-10T12:07:33;100974.69;;;20.90;34.91
17764;BME280;22245;52.832;13.816;2023-05-10T12:11:04;100981.97;;;20.89;34.99
17764;BME280;22245;52.832;13.816;2023-05-10T12:14:26;100975.41;;;20.99;34.98
17764;BME280;22245;52.832;13.816;2023-05-10T12:17:50;100978.09;;;20.99;34.86
17764;BME280;22245;52.832;13.816;2023-05-10T12:21:12;100983.31;;;21.00;35.11
17764;BME280;22245;52.832;13.816;2023-05-10T12:24:34;100980.66;;;21.07;35.14
17764;BME280;22245;52.832;13.816;2023-05-10T12:27:58;100974.28;;;21.15;35.86
17764;BME280;22245;52.832;13.816;2023-05-10T12:31:21;100966.84;;;21.23;34.82
17764;BME280;22245;52.832;13.816;2023-05-10T12:34:46;100969.59;;;21.30;34.60
17764;BME280;22245;52.832;13.816;2023-05-10T12:38:24;100973.41;;;21.36;34.41
17764;BME280;22245;52.832;13.816;2023-05-10T12:41:46;100982.63;;;21.42;35.02
17764;BME280;22245;52.832;13.816;2023-05-10T12:45:08;100988.06;;;21.48;34.62
17764;BME280;22245;52.832;13.816;2023-05-10T12:48:30;100985.59;;;21.53;34.19
17764;BME280;22245;52.832;13.816;2023-05-10T12:51:53;100993.97;;;21.59;34.63
17764;BME280;22245;52.832;13.816;2023-05-10T12:55:14;100983.44;;;21.64;34.94
17764;BME280;22245;52.832;13.816;2023-05-10T12:58:36;100980.94;;;21.69;33.82
17764;BME280;22245;52.832;13.816;2023-05-10T13:01:58;100996.41;;;21.75;34.71
17764;BME280;22245;52.832;13.816;2023-05-10T13:05:19;100990.19;;;21.81;34.71
17764;BME280;22245;52.832;13.816;2023-05-10T13:08:43;100970.41;;;21.88;35.68
17764;BME280;22245;52.832;13.816;2023-05-10T13:12:04;100980.63;;;21.86;33.56
17764;BME280;22245;52.832;13.816;2023-05-10T13:15:29;100981.03;;;21.82;33.64
17764;BME280;22245;52.832;13.816;2023-05-10T13:18:50;100978.94;;;21.85;34.34
17764;BME280;22245;52.832;13.816;2023-05-10T13:22:12;100983.56;;;21.91;33.94
17764;BME280;22245;52.832;13.816;2023-05-10T13:25:43;100981.94;;;21.96;33.56
17764;BME280;22245;52.832;13.816;2023-05-10T13:29:06;100979.03;;;21.98;33.42
17764;BME280;22245;52.832;13.816;2023-05-10T13:32:27;100974.03;;;22.02;34.12
17764;BME280;22245;52.832;13.816;2023-05-10T13:35:49;100971.53;;;22.07;33.96
17764;BME280;22245;52.832;13.816;2023-05-10T13:39:14;100968.88;;;22.14;33.47
17764;BME280;22245;52.832;13.816;2023-05-10T13:42:37;100973.06;;;22.23;33.85
17764;BME280;22245;52.832;13.816;2023-05-10T13:46:00;100961.63;;;22.27;32.40
17764;BME280;22245;52.832;13.816;2023-05-10T13:49:21;100945.97;;;22.30;32.76
17764;BME280;22245;52.832;13.816;2023-05-10T13:52:43;100955.78;;;22.31;32.75
17764;BME280;22245;52.832;13.816;2023-05-10T13:56:05;100969.75;;;22.34;33.02
17764;BME280;22245;52.832;13.816;2023-05-10T13:59:28;100958.72;;;22.43;32.52
17764;BME280;22245;52.832;13.816;2023-05-10T14:02:52;100949.56;;;22.50;32.03
17764;BME280;22245;52.832;13.816;2023-05-10T14:06:14;100954.22;;;22.57;32.67
17764;BME280;22245;52.832;13.816;2023-05-10T14:09:36;100961.09;;;22.66;32.83
17764;BME280;22245;52.832;13.816;2023-05-10T14:12:57;100965.28;;;22.75;32.36
17764;BME280;22245;52.832;13.816;2023-05-10T14:16:20;100967.81;;;22.83;32.33
17764;BME280;22245;52.832;13.816;2023-05-10T14:19:42;100961.34;;;22.91;32.37
17764;BME280;22245;52.832;13.816;2023-05-10T14:23:04;100966.78;;;22.98;31.96
17764;BME280;22245;52.832;13.816;2023-05-10T14:26:25;100957.56;;;23.06;31.74
17764;BME280;22245;52.832;13.816;2023-05-10T14:29:47;100962.81;;;23.14;31.86
17764;BME280;22245;52.832;13.816;2023-05-10T14:33:10;100955.28;;;23.23;32.06
17764;BME280;22245;52.832;13.816;2023-05-10T14:36:32;100948.41;;;23.34;31.75
17764;BME280;22245;52.832;13.816;2023-05-10T14:39:54;100949.03;;;23.42;30.68
17764;BME280;22245;52.832;13.816;2023-05-10T14:43:15;100953.59;;;23.55;30.96
17764;BME280;22245;52.832;13.816;2023-05-10T14:46:36;100948.97;;;23.63;30.40
17764;BME280;22245;52.832;13.816;2023-05-10T14:49:59;100957.69;;;23.78;30.86
17764;BME280;22245;52.832;13.816;2023-05-10T14:53:21;100952.81;;;24.07;30.97
17764;BME280;22245;52.832;13.816;2023-05-10T14:56:43;100950.16;;;24.39;29.80
17764;BME280;22245;52.832;13.816;2023-05-10T15:00:06;100943.63;;;24.79;29.40
17764;BME280;22245;52.832;13.816;2023-05-10T15:03:28;100938.56;;;25.08;28.54
17764;BME280;22245;52.832;13.816;2023-05-10T15:06:51;100941.34;;;25.46;28.24
17764;BME280;22245;52.832;13.816;2023-05-10T15:10:19;100943.50;;;25.81;27.48
17764;BME280;22245;52.832;13.816;2023-05-10T15:13:40;100940.56;;;26.20;27.53
17764;BME280;22245;52.832;13.816;2023-05-10T15:17:02;100942.88;;;26.47;27.02
17764;BME280;22245;52.832;13.816;2023-05-10T15:20:24;100938.56;;;26.69;26.52
17764;BME280;22245;52.832;13.816;2023-05-10T15:23:47;100944.56;;;26.90;25.93
17764;BME280;22245;52.832;13.816;2023-05-10T15:27:09;100951.00;;;27.08;26.16
17764;BME280;22245;52.832;13.816;2023-05-10T15:30:30;100946.72;;;27.12;25.46
17764;BME280;22245;52.832;13.816;2023-05-10T15:33:56;100940.19;;;27.25;26.34
17764;BME280;22245;52.832;13.816;2023-05-10T15:37:18;100951.47;;;27.52;25.99
17764;BME280;22245;52.832;13.816;2023-05-10T15:40:41;100950.00;;;27.73;25.72
17764;BME280;22245;52.832;13.816;2023-05-10T15:44:03;100947.34;;;27.91;26.03
17764;BME280;22245;52.832;13.816;2023-05-10T15:47:26;100944.69;;;28.08;26.47
17764;BME280;22245;52.832;13.816;2023-05-10T15:50:47;100938.59;;;28.17;24.79
17764;BME280;22245;52.832;13.816;2023-05-10T15:54:09;100951.81;;;28.21;24.86
17764;BME280;22245;52.832;13.816;2023-05-10T15:57:32;100947.16;;;28.21;25.29
17764;BME280;22245;52.832;13.816;2023-05-10T16:00:55;100942.38;;;28.28;24.94
17764;BME280;22245;52.832;13.816;2023-05-10T16:04:18;100950.34;;;28.30;25.75
17764;BME280;22245;52.832;13.816;2023-05-10T16:07:40;100954.72;;;28.31;25.70
17764;BME280;22245;52.832;13.816;2023-05-10T16:11:02;100954.16;;;28.29;24.90
17764;BME280;22245;52.832;13.816;2023-05-10T16:14:25;100952.75;;;28.26;24.88
17764;BME280;22245;52.832;13.816;2023-05-10T16:17:46;100955.91;;;28.35;25.33
17764;BME280;22245;52.832;13.816;2023-05-10T16:21:09;100948.03;;;28.39;24.94
17764;BME280;22245;52.832;13.816;2023-05-10T16:24:30;100948.84;;;28.39;24.29
17764;BME280;22245;52.832;13.816;2023-05-10T16:27:52;100956.13;;;28.45;24.70
17764;BME280;22245;52.832;13.816;2023-05-10T16:31:15;100949.78;;;28.45;25.23
17764;BME280;22245;52.832;13.816;2023-05-10T16:34:39;100962.19;;;28.48;25.42
17764;BME280;22245;52.832;13.816;2023-05-10T16:38:00;100963.78;;;28.31;24.67
17764;BME280;22245;52.832;13.816;2023-05-10T16:41:23;100969.25;;;27.91;25.92
17764;BME280;22245;52.832;13.816;2023-05-10T16:44:45;100966.69;;;27.48;26.00
17764;BME280;22245;52.832;13.816;2023-05-10T16:48:09;100969.66;;;27.23;25.95
17764;BME280;22245;52.832;13.816;2023-05-10T16:51:31;100965.94;;;27.05;26.78
17764;BME280;22245;52.832;13.816;2023-05-10T16:54:53;100978.66;;;26.87;26.92
17764;BME280;22245;52.832;13.816;2023-05-10T16:58:15;100975.13;;;26.68;27.03
17764;BME280;22245;52.832;13.816;2023-05-10T17:01:36;100981.09;;;26.47;27.59
17764;BME280;22245;52.832;13.816;2023-05-10T17:04:59;100978.66;;;26.26;27.97
17764;BME280;22245;52.832;13.816;2023-05-10T17:08:20;100986.00;;;26.07;28.16
17764;BME280;22245;52.832;13.816;2023-05-10T17:11:42;100991.94;;;25.85;28.38
17764;BME280;22245;52.832;13.816;2023-05-10T17:15:04;100989.44;;;25.65;28.66
17764;BME280;22245;52.832;13.816;2023-05-10T17:18:26;100998.19;;;25.49;29.59
17764;BME280;22245;52.832;13.816;2023-05-10T17:21:49;100997.06;;;25.31;29.66
17764;BME280;22245;52.832;13.816;2023-05-10T17:25:10;101004.53;;;25.17;29.56
17764;BME280;22245;52.832;13.816;2023-05-10T17:28:32;101008.63;;;25.01;30.26